sensor_id;sensor_type;location;lat;lon;timestamp;P1;durP1;ratioP1;P2;durP2;ratioP2
76705;SDS011;65633;44.498;0.166;2023-11-19T00:01:18;19.77;;;9.33;;
76705;SDS011;65633;44.498;0.166;2023-11-19T00:06:51;20.20;;;10.10;;
76705;SDS011;65633;44.498;0.166;2023-11-19T00:12:22;18.73;;;9.10;;
76705;SDS011;65633;44.498;0.166;2023-11-19T00:17:54;13.53;;;6.83;;
76705;SDS011;65633;44.498;0.166;2023-11-19T00:23:29;12.23;;;6.30;;
76705;SDS011;65633;44.498;0.166;2023-11-19T00:29:01;13.10;;;7.23;;
76705;SDS011;65633;44.498;0.166;2023-11-19T00:34:33;19.43;;;8.30;;
76705;SDS011;65633;44.498;0.166;2023-11-19T00:40:06;19.13;;;10.17;;
76705;SDS011;65633;44.498;0.166;2023-11-19T00:45:37;27.77;;;11.07;;
76705;SDS011;65633;44.498;0.166;2023-11-19T00:51:11;20.83;;;10.87;;
76705;SDS011;65633;44.498;0.166;2023-11-19T00:56:43;18.10;;;8.43;;
76705;SDS011;65633;44.498;0.166;2023-11-19T01:02:15;14.83;;;7.50;;
76705;SDS011;65633;44.498;0.166;2023-11-19T01:07:50;14.43;;;5.50;;
76705;SDS011;65633;44.498;0.166;2023-11-19T01:13:22;12.23;;;6.27;;
76705;SDS011;65633;44.498;0.166;2023-11-19T01:18:57;13.43;;;6.27;;
76705;SDS011;65633;44.498;0.166;2023-11-19T01:24:31;8.67;;;5.60;;
76705;SDS011;65633;44.498;0.166;2023-11-19T01:30:04;12.40;;;6.07;;
76705;SDS011;65633;44.498;0.166;2023-11-19T01:35:35;28.93;;;8.43;;
76705;SDS011;65633;44.498;0.166;2023-11-19T01:41:09;19.53;;;5.90;;
76705;SDS011;65633;44.498;0.166;2023-11-19T01:46:42;23.13;;;6.20;;
76705;SDS011;65633;44.498;0.166;2023-11-19T01:52:14;15.13;;;5.60;;
76705;SDS011;65633;44.498;0.166;2023-11-19T01:57:47;9.63;;;4.57;;
76705;SDS011;65633;44.498;0.166;2023-11-19T02:03:20;21.87;;;6.93;;
76705;SDS011;65633;44.498;0.166;2023-11-19T02:08:54;10.07;;;4.83;;
76705;SDS011;65633;44.498;0.166;2023-11-19T02:14:28;13.43;;;6.00;;
76705;SDS011;65633;44.498;0.166;2023-11-19T02:20:01;17.57;;;6.17;;
76705;SDS011;65633;44.498;0.166;2023-11-19T02:25:32;28.20;;;7.00;;
76705;SDS011;65633;44.498;0.166;2023-11-19T02:31:06;18.43;;;6.33;;
76705;SDS011;65633;44.498;0.166;2023-11-19T02:36:39;27.00;;;6.53;;
76705;SDS011;65633;44.498;0.166;2023-11-19T02:42:12;17.97;;;7.00;;
76705;SDS011;65633;44.498;0.166;2023-11-19T02:47:44;12.90;;;5.90;;
76705;SDS011;65633;44.498;0.166;2023-11-19T02:53:17;8.50;;;5.07;;
76705;SDS011;65633;44.498;0.166;2023-11-19T02:58:49;12.73;;;5.47;;
76705;SDS011;65633;44.498;0.166;2023-11-19T03:04:23;18.77;;;5.67;;
76705;SDS011;65633;44.498;0.166;2023-11-19T03:09:55;9.63;;;4.83;;
76705;SDS011;65633;44.498;0.166;2023-11-19T03:15:28;13.07;;;5.30;;
76705;SDS011;65633;44.498;0.166;2023-11-19T03:21:00;13.77;;;5.37;;
76705;SDS011;65633;44.498;0.166;2023-11-19T03:26:34;12.43;;;5.47;;
76705;SDS011;65633;44.498;0.166;2023-11-19T03:32:06;9.33;;;4.57;;
76705;SDS011;65633;44.498;0.166;2023-11-19T03:37:38;23.87;;;5.77;;
76705;SDS011;65633;44.498;0.166;2023-11-19T03:43:13;18.00;;;4.43;;
76705;SDS011;65633;44.498;0.166;2023-11-19T03:48:44;53.47;;;9.10;;
76705;SDS011;65633;44.498;0.166;2023-11-19T03:54:16;27.33;;;5.93;;
76705;SDS011;65633;44.498;0.166;2023-11-19T03:59:48;11.67;;;4.90;;
76705;SDS011;65633;44.498;0.166;2023-11-19T04:10:53;23.93;;;4.87;;
76705;SDS011;65633;44.498;0.166;2023-11-19T04:16:26;10.93;;;5.20;;
76705;SDS011;65633;44.498;0.166;2023-11-19T04:22:00;33.50;;;6.37;;
76705;SDS011;65633;44.498;0.166;2023-11-19T04:27:32;12.13;;;5.43;;
76705;SDS011;65633;44.498;0.166;2023-11-19T04:33:05;23.57;;;4.50;;
76705;SDS011;65633;44.498;0.166;2023-11-19T04:38:39;29.17;;;5.70;;
76705;SDS011;65633;44.498;0.166;2023-11-19T04:44:11;15.50;;;5.73;;
76705;SDS011;65633;44.498;0.166;2023-11-19T04:49:43;8.73;;;4.10;;
76705;SDS011;65633;44.498;0.166;2023-11-19T04:55:18;9.77;;;3.83;;
76705;SDS011;65633;44.498;0.166;2023-11-19T05:00:51;6.73;;;4.03;;
76705;SDS011;65633;44.498;0.166;2023-11-19T05:06:23;7.60;;;5.70;;
76705;SDS011;65633;44.498;0.166;2023-11-19T05:11:56;4.70;;;4.00;;
76705;SDS011;65633;44.498;0.166;2023-11-19T05:17:29;7.30;;;4.03;;
76705;SDS011;65633;44.498;0.166;2023-11-19T05:23:01;7.33;;;3.77;;
76705;SDS011;65633;44.498;0.166;2023-11-19T05:28:35;6.33;;;4.27;;
76705;SDS011;65633;44.498;0.166;2023-11-19T05:34:08;7.33;;;3.67;;
76705;SDS011;65633;44.498;0.166;2023-11-19T05:39:40;5.43;;;4.00;;
76705;SDS011;65633;44.498;0.166;2023-11-19T05:45:13;9.63;;;4.00;;
76705;SDS011;65633;44.498;0.166;2023-11-19T05:50:46;10.20;;;4.20;;
76705;SDS011;65633;44.498;0.166;2023-11-19T05:56:22;7.40;;;4.13;;
76705;SDS011;65633;44.498;0.166;2023-11-19T06:01:53;9.13;;;4.03;;
76705;SDS011;65633;44.498;0.166;2023-11-19T06:07:26;9.97;;;3.83;;
76705;SDS011;65633;44.498;0.166;2023-11-19T06:13:00;6.37;;;3.40;;
76705;SDS011;65633;44.498;0.166;2023-11-19T06:18:32;4.80;;;3.30;;
76705;SDS011;65633;44.498;0.166;2023-11-19T06:24:06;6.17;;;4.40;;
76705;SDS011;65633;44.498;0.166;2023-11-19T06:29:41;6.60;;;3.93;;
76705;SDS011;65633;44.498;0.166;2023-11-19T06:35:13;5.33;;;3.50;;
76705;SDS011;65633;44.498;0.166;2023-11-19T06:40:45;9.50;;;5.00;;
76705;SDS011;65633;44.498;0.166;2023-11-19T06:46:17;5.87;;;4.17;;
76705;SDS011;65633;44.498;0.166;2023-11-19T06:51:50;4.37;;;3.30;;
76705;SDS011;65633;44.498;0.166;2023-11-19T06:57:24;7.47;;;4.80;;
76705;SDS011;65633;44.498;0.166;2023-11-19T07:02:56;8.70;;;3.70;;
76705;SDS011;65633;44.498;0.166;2023-11-19T07:08:29;7.47;;;3.73;;
76705;SDS011;65633;44.498;0.166;2023-11-19T07:14:03;5.20;;;3.00;;
76705;SDS011;65633;44.498;0.166;2023-11-19T07:19:36;8.00;;;4.13;;
76705;SDS011;65633;44.498;0.166;2023-11-19T07:25:09;7.70;;;3.37;;
76705;SDS011;65633;44.498;0.166;2023-11-19T07:30:41;7.10;;;4.13;;
76705;SDS011;65633;44.498;0.166;2023-11-19T07:36:13;13.40;;;4.97;;
76705;SDS011;65633;44.498;0.166;2023-11-19T07:41:46;7.13;;;4.43;;
76705;SDS011;65633;44.498;0.166;2023-11-19T07:47:19;8.13;;;4.27;;
76705;SDS011;65633;44.498;0.166;2023-11-19T07:52:53;5.37;;;3.13;;
76705;SDS011;65633;44.498;0.166;2023-11-19T07:58:25;5.20;;;3.37;;
76705;SDS011;65633;44.498;0.166;2023-11-19T08:03:57;7.00;;;3.73;;
76705;SDS011;65633;44.498;0.166;2023-11-19T08:09:30;4.47;;;2.83;;
76705;SDS011;65633;44.498;0.166;2023-11-19T08:15:04;6.17;;;4.63;;
76705;SDS011;65633;44.498;0.166;2023-11-19T08:20:35;7.27;;;3.40;;
76705;SDS011;65633;44.498;0.166;2023-11-19T08:26:08;7.73;;;3.93;;
76705;SDS011;65633;44.498;0.166;2023-11-19T08:31:41;8.03;;;4.47;;
76705;SDS011;65633;44.498;0.166;2023-11-19T08:37:15;7.13;;;3.47;;
76705;SDS011;65633;44.498;0.166;2023-11-19T08:42:47;6.00;;;3.80;;
76705;SDS011;65633;44.498;0.166;2023-11-19T08:48:20;9.23;;;3.60;;
76705;SDS011;65633;44.498;0.166;2023-11-19T08:53:52;4.67;;;3.17;;
76705;SDS011;65633;44.498;0.166;2023-11-19T08:59:25;4.43;;;2.93;;
76705;SDS011;65633;44.498;0.166;2023-11-19T09:04:59;8.17;;;4.10;;
76705;SDS011;65633;44.498;0.166;2023-11-19T09:10:32;5.93;;;3.87;;
76705;SDS011;65633;44.498;0.166;2023-11-19T09:16:04;4.90;;;2.80;;
76705;SDS011;65633;44.498;0.166;2023-11-19T09:21:39;7.50;;;3.27;;
76705;SDS011;65633;44.498;0.166;2023-11-19T09:27:09;4.30;;;2.67;;
76705;SDS011;65633;44.498;0.166;2023-11-19T09:32:40;5.50;;;2.90;;
76705;SDS011;65633;44.498;0.166;2023-11-19T09:38:13;8.90;;;3.43;;
76705;SDS011;65633;44.498;0.166;2023-11-19T09:43:47;6.53;;;3.70;;
76705;SDS011;65633;44.498;0.166;2023-11-19T09:49:21;6.20;;;3.60;;
76705;SDS011;65633;44.498;0.166;2023-11-19T09:54:52;5.60;;;3.13;;
76705;SDS011;65633;44.498;0.166;2023-11-19T10:00:26;5.07;;;2.83;;
76705;SDS011;65633;44.498;0.166;2023-11-19T10:05:59;3.63;;;2.53;;
76705;SDS011;65633;44.498;0.166;2023-11-19T10:11:33;3.53;;;2.87;;
76705;SDS011;65633;44.498;0.166;2023-11-19T10:17:07;4.90;;;2.93;;
76705;SDS011;65633;44.498;0.166;2023-11-19T10:22:40;7.30;;;3.50;;
76705;SDS011;65633;44.498;0.166;2023-11-19T10:28:15;4.30;;;2.57;;
76705;SDS011;65633;44.498;0.166;2023-11-19T10:33:45;4.70;;;2.73;;
76705;SDS011;65633;44.498;0.166;2023-11-19T10:39:18;5.60;;;3.13;;
76705;SDS011;65633;44.498;0.166;2023-11-19T10:44:52;3.53;;;2.00;;
76705;SDS011;65633;44.498;0.166;2023-11-19T10:50:25;4.00;;;2.60;;
76705;SDS011;65633;44.498;0.166;2023-11-19T10:55:58;4.93;;;2.70;;
76705;SDS011;65633;44.498;0.166;2023-11-19T11:01:35;4.73;;;3.07;;
76705;SDS011;65633;44.498;0.166;2023-11-19T11:07:04;2.77;;;2.50;;
76705;SDS011;65633;44.498;0.166;2023-11-19T11:12:36;4.53;;;2.50;;
76705;SDS011;65633;44.498;0.166;2023-11-19T11:18:09;5.43;;;2.93;;
76705;SDS011;65633;44.498;0.166;2023-11-19T11:23:44;5.13;;;3.07;;
76705;SDS011;65633;44.498;0.166;2023-11-19T11:29:19;4.57;;;2.30;;
76705;SDS011;65633;44.498;0.166;2023-11-19T11:34:49;8.77;;;3.87;;
76705;SDS011;65633;44.498;0.166;2023-11-19T11:40:24;4.77;;;3.17;;
76705;SDS011;65633;44.498;0.166;2023-11-19T11:45:54;5.70;;;2.70;;
76705;SDS011;65633;44.498;0.166;2023-11-19T11:57:03;5.60;;;3.00;;
76705;SDS011;65633;44.498;0.166;2023-11-19T12:02:32;5.70;;;2.73;;
76705;SDS011;65633;44.498;0.166;2023-11-19T12:08:06;9.17;;;3.73;;
76705;SDS011;65633;44.498;0.166;2023-11-19T12:13:46;5.20;;;3.13;;
76705;SDS011;65633;44.498;0.166;2023-11-19T12:19:10;3.77;;;2.47;;
76705;SDS011;65633;44.498;0.166;2023-11-19T12:24:44;3.87;;;2.37;;
76705;SDS011;65633;44.498;0.166;2023-11-19T12:30:17;3.00;;;1.63;;
76705;SDS011;65633;44.498;0.166;2023-11-19T12:35:49;4.07;;;2.20;;
76705;SDS011;65633;44.498;0.166;2023-11-19T12:41:23;2.40;;;1.80;;
76705;SDS011;65633;44.498;0.166;2023-11-19T12:52:27;3.93;;;1.90;;
76705;SDS011;65633;44.498;0.166;2023-11-19T12:58:00;2.00;;;1.37;;
76705;SDS011;65633;44.498;0.166;2023-11-19T13:03:32;2.10;;;1.67;;
76705;SDS011;65633;44.498;0.166;2023-11-19T13:09:05;4.30;;;1.93;;
76705;SDS011;65633;44.498;0.166;2023-11-19T13:14:37;4.70;;;1.67;;
76705;SDS011;65633;44.498;0.166;2023-11-19T13:20:09;3.07;;;1.77;;
76705;SDS011;65633;44.498;0.166;2023-11-19T13:25:41;4.70;;;1.80;;
76705;SDS011;65633;44.498;0.166;2023-11-19T13:31:15;3.07;;;1.70;;
76705;SDS011;65633;44.498;0.166;2023-11-19T13:36:48;3.47;;;1.60;;
76705;SDS011;65633;44.498;0.166;2023-11-19T13:42:20;4.57;;;2.23;;
76705;SDS011;65633;44.498;0.166;2023-11-19T13:47:52;6.57;;;2.00;;
76705;SDS011;65633;44.498;0.166;2023-11-19T13:53:25;2.97;;;1.33;;
76705;SDS011;65633;44.498;0.166;2023-11-19T13:58:58;6.17;;;3.47;;
76705;SDS011;65633;44.498;0.166;2023-11-19T14:04:32;8.13;;;2.60;;
76705;SDS011;65633;44.498;0.166;2023-11-19T14:10:06;3.57;;;1.83;;
76705;SDS011;65633;44.498;0.166;2023-11-19T14:15:38;2.93;;;1.70;;
76705;SDS011;65633;44.498;0.166;2023-11-19T14:21:11;3.13;;;1.80;;
76705;SDS011;65633;44.498;0.166;2023-11-19T14:26:45;4.10;;;2.63;;
76705;SDS011;65633;44.498;0.166;2023-11-19T14:32:15;6.57;;;2.60;;
76705;SDS011;65633;44.498;0.166;2023-11-19T14:37:47;5.50;;;2.20;;
76705;SDS011;65633;44.498;0.166;2023-11-19T14:43:20;8.60;;;2.50;;
76705;SDS011;65633;44.498;0.166;2023-11-19T14:48:53;5.27;;;2.37;;
76705;SDS011;65633;44.498;0.166;2023-11-19T14:54:26;4.80;;;2.63;;
76705;SDS011;65633;44.498;0.166;2023-11-19T14:59:58;3.60;;;2.07;;
76705;SDS011;65633;44.498;0.166;2023-11-19T15:05:31;3.93;;;1.93;;
76705;SDS011;65633;44.498;0.166;2023-11-19T15:11:05;4.37;;;2.17;;
76705;SDS011;65633;44.498;0.166;2023-11-19T15:16:35;27.23;;;16.20;;
76705;SDS011;65633;44.498;0.166;2023-11-19T15:22:12;9.43;;;4.87;;
76705;SDS011;65633;44.498;0.166;2023-11-19T15:27:41;6.53;;;2.83;;
76705;SDS011;65633;44.498;0.166;2023-11-19T15:33:14;3.70;;;2.23;;
76705;SDS011;65633;44.498;0.166;2023-11-19T15:38:47;7.20;;;2.53;;
76705;SDS011;65633;44.498;0.166;2023-11-19T15:44:19;5.23;;;1.57;;
76705;SDS011;65633;44.498;0.166;2023-11-19T15:49:52;6.37;;;2.87;;
76705;SDS011;65633;44.498;0.166;2023-11-19T15:55:25;12.47;;;4.47;;
76705;SDS011;65633;44.498;0.166;2023-11-19T16:00:57;10.50;;;3.90;;
76705;SDS011;65633;44.498;0.166;2023-11-19T16:06:30;6.83;;;3.37;;
76705;SDS011;65633;44.498;0.166;2023-11-19T16:12:03;4.97;;;3.53;;
76705;SDS011;65633;44.498;0.166;2023-11-19T16:17:39;8.17;;;3.30;;
76705;SDS011;65633;44.498;0.166;2023-11-19T16:23:10;8.07;;;4.00;;
76705;SDS011;65633;44.498;0.166;2023-11-19T16:28:44;8.40;;;4.63;;
76705;SDS011;65633;44.498;0.166;2023-11-19T16:34:15;9.03;;;3.63;;
76705;SDS011;65633;44.498;0.166;2023-11-19T16:39:48;8.47;;;3.33;;
76705;SDS011;65633;44.498;0.166;2023-11-19T16:45:22;15.43;;;6.43;;
76705;SDS011;65633;44.498;0.166;2023-11-19T16:50:54;6.47;;;3.60;;
76705;SDS011;65633;44.498;0.166;2023-11-19T16:56:26;7.23;;;4.30;;
76705;SDS011;65633;44.498;0.166;2023-11-19T17:02:01;8.70;;;4.40;;
76705;SDS011;65633;44.498;0.166;2023-11-19T17:07:32;10.17;;;5.13;;
76705;SDS011;65633;44.498;0.166;2023-11-19T17:13:05;16.23;;;8.20;;
76705;SDS011;65633;44.498;0.166;2023-11-19T17:18:38;15.40;;;8.63;;
76705;SDS011;65633;44.498;0.166;2023-11-19T17:24:10;11.53;;;6.13;;
76705;SDS011;65633;44.498;0.166;2023-11-19T17:29:42;6.17;;;3.93;;
76705;SDS011;65633;44.498;0.166;2023-11-19T17:35:16;8.33;;;4.50;;
76705;SDS011;65633;44.498;0.166;2023-11-19T17:40:49;7.93;;;5.10;;
76705;SDS011;65633;44.498;0.166;2023-11-19T17:46:20;8.67;;;4.80;;
76705;SDS011;65633;44.498;0.166;2023-11-19T17:51:54;11.03;;;5.77;;
76705;SDS011;65633;44.498;0.166;2023-11-19T17:57:27;8.13;;;4.87;;
76705;SDS011;65633;44.498;0.166;2023-11-19T18:02:59;9.57;;;5.60;;
76705;SDS011;65633;44.498;0.166;2023-11-19T18:08:31;14.13;;;7.50;;
76705;SDS011;65633;44.498;0.166;2023-11-19T18:14:04;16.90;;;7.47;;
76705;SDS011;65633;44.498;0.166;2023-11-19T18:19:36;13.87;;;7.33;;
76705;SDS011;65633;44.498;0.166;2023-11-19T18:25:11;13.67;;;5.90;;
76705;SDS011;65633;44.498;0.166;2023-11-19T18:30:41;8.63;;;4.23;;
76705;SDS011;65633;44.498;0.166;2023-11-19T18:36:16;10.53;;;5.20;;
76705;SDS011;65633;44.498;0.166;2023-11-19T18:41:48;16.87;;;7.00;;
76705;SDS011;65633;44.498;0.166;2023-11-19T18:47:20;11.70;;;5.73;;
76705;SDS011;65633;44.498;0.166;2023-11-19T18:52:52;9.77;;;5.10;;
76705;SDS011;65633;44.498;0.166;2023-11-19T18:58:24;11.40;;;5.17;;
76705;SDS011;65633;44.498;0.166;2023-11-19T19:03:56;19.67;;;10.80;;
76705;SDS011;65633;44.498;0.166;2023-11-19T19:09:29;18.57;;;9.60;;
76705;SDS011;65633;44.498;0.166;2023-11-19T19:15:01;28.17;;;10.07;;
76705;SDS011;65633;44.498;0.166;2023-11-19T19:20:35;28.73;;;13.43;;
76705;SDS011;65633;44.498;0.166;2023-11-19T19:26:08;25.33;;;11.10;;
76705;SDS011;65633;44.498;0.166;2023-11-19T19:31:42;31.27;;;12.67;;
76705;SDS011;65633;44.498;0.166;2023-11-19T19:37:15;24.13;;;11.87;;
76705;SDS011;65633;44.498;0.166;2023-11-19T19:42:49;29.40;;;12.70;;
76705;SDS011;65633;44.498;0.166;2023-11-19T19:48:21;28.70;;;11.60;;
76705;SDS011;65633;44.498;0.166;2023-11-19T19:53:54;19.97;;;10.03;;
76705;SDS011;65633;44.498;0.166;2023-11-19T19:59:27;20.70;;;10.70;;
76705;SDS011;65633;44.498;0.166;2023-11-19T20:05:00;19.47;;;10.63;;
76705;SDS011;65633;44.498;0.166;2023-11-19T20:10:34;21.10;;;10.13;;
76705;SDS011;65633;44.498;0.166;2023-11-19T20:16:06;26.97;;;11.70;;
76705;SDS011;65633;44.498;0.166;2023-11-19T20:21:39;34.93;;;13.60;;
76705;SDS011;65633;44.498;0.166;2023-11-19T20:27:16;21.80;;;11.60;;
76705;SDS011;65633;44.498;0.166;2023-11-19T20:32:45;17.17;;;9.97;;
76705;SDS011;65633;44.498;0.166;2023-11-19T20:38:17;22.87;;;10.47;;
76705;SDS011;65633;44.498;0.166;2023-11-19T20:43:50;25.43;;;10.17;;
76705;SDS011;65633;44.498;0.166;2023-11-19T20:49:23;24.03;;;11.00;;
76705;SDS011;65633;44.498;0.166;2023-11-19T20:54:55;25.43;;;12.43;;
76705;SDS011;65633;44.498;0.166;2023-11-19T21:00:29;19.53;;;11.23;;
76705;SDS011;65633;44.498;0.166;2023-11-19T21:06:02;18.20;;;10.93;;
76705;SDS011;65633;44.498;0.166;2023-11-19T21:11:35;17.27;;;9.20;;
76705;SDS011;65633;44.498;0.166;2023-11-19T21:17:08;17.33;;;9.23;;
76705;SDS011;65633;44.498;0.166;2023-11-19T21:22:41;17.47;;;9.10;;
76705;SDS011;65633;44.498;0.166;2023-11-19T21:28:15;17.60;;;8.43;;
76705;SDS011;65633;44.498;0.166;2023-11-19T21:33:47;18.47;;;9.67;;
76705;SDS011;65633;44.498;0.166;2023-11-19T21:39:20;23.00;;;9.90;;
76705;SDS011;65633;44.498;0.166;2023-11-19T21:44:52;30.40;;;10.63;;
76705;SDS011;65633;44.498;0.166;2023-11-19T21:50:24;22.23;;;10.10;;
76705;SDS011;65633;44.498;0.166;2023-11-19T21:55:58;16.50;;;9.07;;
76705;SDS011;65633;44.498;0.166;2023-11-19T22:01:29;18.93;;;9.30;;
76705;SDS011;65633;44.498;0.166;2023-11-19T22:07:02;18.60;;;9.13;;
76705;SDS011;65633;44.498;0.166;2023-11-19T22:12:33;16.40;;;8.53;;
76705;SDS011;65633;44.498;0.166;2023-11-19T22:18:06;15.47;;;8.47;;
76705;SDS011;65633;44.498;0.166;2023-11-19T22:23:39;19.80;;;9.93;;
76705;SDS011;65633;44.498;0.166;2023-11-19T22:29:11;24.73;;;10.80;;
76705;SDS011;65633;44.498;0.166;2023-11-19T22:34:45;24.40;;;11.93;;
76705;SDS011;65633;44.498;0.166;2023-11-19T22:40:17;33.63;;;12.67;;
76705;SDS011;65633;44.498;0.166;2023-11-19T22:45:49;24.60;;;12.63;;
76705;SDS011;65633;44.498;0.166;2023-11-19T22:51:23;24.53;;;10.30;;
76705;SDS011;65633;44.498;0.166;2023-11-19T22:56:55;33.33;;;11.57;;
76705;SDS011;65633;44.498;0.166;2023-11-19T23:02:30;27.70;;;12.63;;
76705;SDS011;65633;44.498;0.166;2023-11-19T23:08:00;26.17;;;12.00;;
76705;SDS011;65633;44.498;0.166;2023-11-19T23:13:32;24.87;;;10.77;;
76705;SDS011;65633;44.498;0.166;2023-11-19T23:19:05;17.40;;;9.90;;
76705;SDS011;65633;44.498;0.166;2023-11-19T23:24:37;19.17;;;10.00;;
76705;SDS011;65633;44.498;0.166;2023-11-19T23:30:09;21.53;;;11.13;;
76705;SDS011;65633;44.498;0.166;2023-11-19T23:35:43;23.20;;;10.37;;
76705;SDS011;65633;44.498;0.166;2023-11-19T23:41:15;20.83;;;10.77;;
76705;SDS011;65633;44.498;0.166;2023-11-19T23:46:48;24.90;;;14.23;;
76705;SDS011;65633;44.498;0.166;2023-11-19T23:52:19;20.70;;;9.83;;
76705;SDS011;65633;44.498;0.166;2023-11-19T23:57:52;22.53;;;12.03;;
